createdAt,value
2023-02-22T00:01:35.441Z,45.33
2023-02-22T00:03:58.921Z,46.47
2023-02-22T00:06:25.074Z,46.15
2023-02-22T00:08:50.438Z,45.30
2023-02-22T00:11:15.456Z,45.75
2023-02-22T00:13:42.106Z,44.25
2023-02-22T00:16:06.502Z,46.17
2023-02-22T00:18:30.797Z,45.97
2023-02-22T00:20:59.935Z,45.55
2023-02-22T00:23:25.392Z,44.72
2023-02-22T00:25:50.496Z,45.25
2023-02-22T00:28:17.017Z,43.95
2023-02-22T00:30:43.650Z,47.65
2023-02-22T00:33:07.070Z,47.35
2023-02-22T00:35:32.313Z,44.50
2023-02-22T00:37:58.435Z,45.17
2023-02-22T00:40:24.421Z,44.78
2023-02-22T00:42:48.024Z,46.55
2023-02-22T00:45:12.678Z,45.97
2023-02-22T00:47:36.950Z,48.85
2023-02-22T00:50:01.074Z,46.05
2023-02-22T00:52:24.592Z,51.85
2023-02-22T00:54:47.885Z,51.00
2023-02-22T00:57:11.678Z,52.17
2023-02-22T00:59:35.003Z,48.20
2023-02-22T01:02:00.039Z,49.72
2023-02-22T01:04:23.924Z,45.58
2023-02-22T01:06:47.277Z,50.13
2023-02-22T01:09:10.565Z,47.95
2023-02-22T01:11:33.782Z,47.05
2023-02-22T01:13:58.021Z,46.55
2023-02-22T01:16:21.936Z,45.90
2023-02-22T01:18:46.745Z,48.28
2023-02-22T01:21:10.200Z,47.45
2023-02-22T01:23:34.041Z,45.20
2023-02-22T01:25:57.620Z,48.53
2023-02-22T01:28:22.484Z,47.63
2023-02-22T01:30:47.012Z,44.80
2023-02-22T01:33:10.306Z,47.10
2023-02-22T01:35:40.833Z,48.17
2023-02-22T01:38:04.224Z,49.72
2023-02-22T01:40:31.297Z,46.22
2023-02-22T01:42:58.730Z,46.80
2023-02-22T01:46:00.646Z,47.78
2023-02-22T01:48:31.241Z,46.58
2023-02-22T01:51:00.939Z,45.55
2023-02-22T01:53:30.263Z,44.78
2023-02-22T01:55:56.056Z,47.25
2023-02-22T01:58:21.968Z,46.00
2023-02-22T02:00:45.773Z,44.47
2023-02-22T02:03:16.061Z,47.78
2023-02-22T02:05:40.163Z,45.63
2023-02-22T02:08:20.691Z,47.97
2023-02-22T02:10:45.334Z,46.65
2023-02-22T02:13:10.130Z,45.00
2023-02-22T02:15:35.543Z,46.13
2023-02-22T02:18:02.879Z,46.25
2023-02-22T02:20:35.191Z,41.45
2023-02-22T02:23:09.858Z,44.45
2023-02-22T02:26:08.906Z,41.47
2023-02-22T02:29:18.825Z,45.08
2023-02-22T02:32:24.368Z,42.40
2023-02-22T02:34:54.912Z,86.38
2023-02-22T02:37:30.072Z,44.53
2023-02-22T02:39:58.760Z,46.83
2023-02-22T02:42:26.107Z,45.47
2023-02-22T02:44:56.481Z,64.55
2023-02-22T02:47:26.273Z,46.85
2023-02-22T02:49:56.368Z,43.17
2023-02-22T02:52:22.082Z,41.13
2023-02-22T02:54:47.119Z,44.85
2023-02-22T02:57:11.266Z,39.78
2023-02-22T02:59:38.534Z,42.78
2023-02-22T03:02:28.570Z,42.50
2023-02-22T03:05:17.265Z,49.28
2023-02-22T03:07:53.387Z,40.90
2023-02-22T03:10:39.734Z,38.38
2023-02-22T03:13:15.387Z,40.67
2023-02-22T03:15:52.442Z,45.53
2023-02-22T03:18:22.998Z,40.70
2023-02-22T03:20:54.459Z,41.75
2023-02-22T03:23:27.328Z,42.20
2023-02-22T03:25:57.887Z,56.55
2023-02-22T03:28:27.394Z,39.03
2023-02-22T03:30:57.157Z,41.33
2023-02-22T03:33:28.789Z,41.35
2023-02-22T03:36:02.986Z,49.97
2023-02-22T03:38:30.356Z,41.28
2023-02-22T03:40:59.216Z,44.50
2023-02-22T03:43:30.357Z,47.58
2023-02-22T03:45:56.548Z,32.58
2023-02-22T03:48:28.505Z,33.45
2023-02-22T03:50:52.453Z,55.08
2023-02-22T03:53:18.574Z,33.15
2023-02-22T03:55:43.997Z,34.67
2023-02-22T03:58:12.252Z,54.35
2023-02-22T04:00:36.900Z,36.90
2023-02-22T04:03:00.812Z,51.85
2023-02-22T04:05:26.201Z,40.35
2023-02-22T04:07:49.666Z,38.90
2023-02-22T04:10:16.175Z,38.83
2023-02-22T04:12:40.510Z,48.13
2023-02-22T04:15:05.954Z,28.25
2023-02-22T04:17:29.538Z,31.48
2023-02-22T04:19:53.343Z,34.40
2023-02-22T04:22:20.698Z,27.00
2023-02-22T04:24:44.029Z,24.58
2023-02-22T04:27:07.390Z,27.27
2023-02-22T04:29:33.715Z,25.42
2023-02-22T04:31:57.541Z,37.65
2023-02-22T04:34:20.845Z,28.38
2023-02-22T04:36:45.405Z,26.92
2023-02-22T04:39:10.319Z,26.73
2023-02-22T04:41:34.514Z,28.55
2023-02-22T04:43:58.030Z,27.02
2023-02-22T04:46:22.840Z,26.35
2023-02-22T04:48:46.528Z,40.30
2023-02-22T04:51:11.559Z,28.08
2023-02-22T04:53:40.333Z,38.28
2023-02-22T04:56:05.721Z,37.42
2023-02-22T04:58:29.431Z,31.42
2023-02-22T05:00:52.984Z,40.00
2023-02-22T05:03:16.883Z,31.00
2023-02-22T05:05:40.307Z,29.63
2023-02-22T05:08:03.690Z,27.10
2023-02-22T05:10:26.988Z,29.88
2023-02-22T05:12:51.768Z,28.55
2023-02-22T05:15:19.252Z,26.73
2023-02-22T05:17:42.534Z,29.05
2023-02-22T05:20:08.532Z,35.55
2023-02-22T05:22:31.961Z,31.48
2023-02-22T05:24:56.761Z,31.48
2023-02-22T05:27:20.741Z,35.67
2023-02-22T05:29:45.589Z,34.33
2023-02-22T05:32:08.932Z,30.98
2023-02-22T05:34:32.218Z,32.95
2023-02-22T05:36:55.460Z,35.17
2023-02-22T05:39:18.759Z,36.13
2023-02-22T05:41:42.052Z,37.10
2023-02-22T05:44:05.766Z,46.25
2023-02-22T05:46:30.703Z,57.75
2023-02-22T05:48:54.314Z,44.45
2023-02-22T05:51:19.652Z,51.10
2023-02-22T05:53:43.554Z,41.17
2023-02-22T05:56:07.725Z,34.40
2023-02-22T05:58:31.046Z,48.05
2023-02-22T06:00:54.601Z,34.05
2023-02-22T06:03:19.601Z,33.47
2023-02-22T06:05:42.978Z,32.63
2023-02-22T06:08:08.133Z,31.38
2023-02-22T06:10:31.893Z,33.47
2023-02-22T06:12:55.749Z,37.90
2023-02-22T06:15:21.469Z,31.45
2023-02-22T06:17:45.340Z,35.00
2023-02-22T06:20:12.700Z,37.05
2023-02-22T06:22:35.985Z,31.27
2023-02-22T06:24:59.357Z,37.15
2023-02-22T06:27:23.020Z,34.45
2023-02-22T06:29:47.560Z,34.60
2023-02-22T06:32:11.265Z,30.85
2023-02-22T06:34:34.587Z,35.63
2023-02-22T06:37:00.739Z,34.60
2023-02-22T06:39:25.536Z,42.22
2023-02-22T06:41:51.582Z,35.15
2023-02-22T06:44:16.427Z,40.90
2023-02-22T06:46:40.151Z,38.38
2023-02-22T06:49:03.472Z,35.10
2023-02-22T06:51:27.312Z,37.88
2023-02-22T06:53:51.995Z,37.65
2023-02-22T06:56:15.493Z,39.83
2023-02-22T06:58:38.777Z,40.45
2023-02-22T07:01:03.801Z,38.90
2023-02-22T07:03:27.203Z,39.85
2023-02-22T07:05:50.546Z,38.90
2023-02-22T07:08:14.254Z,43.25
2023-02-22T07:10:39.906Z,36.38
2023-02-22T07:13:04.054Z,38.17
2023-02-22T07:15:29.721Z,37.17
2023-02-22T07:17:53.756Z,33.90
2023-02-22T07:20:17.622Z,35.83
2023-02-22T07:22:41.383Z,35.45
2023-02-22T07:25:05.593Z,32.85
2023-02-22T07:27:30.209Z,35.47
2023-02-22T07:29:53.613Z,32.70
2023-02-22T07:32:17.044Z,31.80
2023-02-22T07:34:42.672Z,31.83
2023-02-22T07:37:06.060Z,30.85
2023-02-22T07:39:29.301Z,29.15
2023-02-22T07:41:52.734Z,29.88
2023-02-22T07:44:21.177Z,29.08
2023-02-22T07:46:50.337Z,29.27
2023-02-22T07:49:13.638Z,27.42
2023-02-22T07:51:36.937Z,28.42
2023-02-22T07:54:00.232Z,28.70
2023-02-22T07:56:23.591Z,26.70
2023-02-22T07:58:46.903Z,28.33
2023-02-22T08:01:11.600Z,28.75
2023-02-22T08:03:36.656Z,29.35
2023-02-22T08:06:00.630Z,27.10
2023-02-22T08:08:24.451Z,24.90
2023-02-22T08:10:48.369Z,26.08
2023-02-22T08:13:12.370Z,26.17
2023-02-22T08:15:39.137Z,25.67
2023-02-22T08:18:09.077Z,25.55
2023-02-22T08:20:32.769Z,24.55
2023-02-22T08:22:57.234Z,24.02
2023-02-22T08:25:23.226Z,23.15
2023-02-22T08:27:46.546Z,23.85
2023-02-22T08:30:12.775Z,23.23
2023-02-22T08:32:36.493Z,22.42
2023-02-22T08:35:01.371Z,23.10
2023-02-22T08:37:24.644Z,22.02
2023-02-22T08:39:47.936Z,21.77
2023-02-22T08:42:11.552Z,23.60
2023-02-22T08:44:34.831Z,23.00
2023-02-22T08:46:58.460Z,22.38
2023-02-22T08:49:21.774Z,21.50
2023-02-22T08:51:46.453Z,22.45
2023-02-22T08:54:09.770Z,23.08
2023-02-22T08:56:33.284Z,22.13
2023-02-22T08:58:57.431Z,21.73
2023-02-22T09:01:32.756Z,21.02
2023-02-22T09:03:57.682Z,22.05
2023-02-22T09:06:20.917Z,21.83
2023-02-22T09:08:45.767Z,21.15
2023-02-22T09:11:09.068Z,22.85
2023-02-22T09:13:32.669Z,22.75
2023-02-22T09:15:55.904Z,21.58
2023-02-22T09:18:21.075Z,21.55
2023-02-22T09:20:44.322Z,21.00
2023-02-22T09:23:10.554Z,20.25
2023-02-22T09:25:35.718Z,20.05
2023-02-22T09:27:59.307Z,21.25
2023-02-22T09:30:27.033Z,20.27
2023-02-22T09:32:52.077Z,19.75
2023-02-22T09:35:15.624Z,20.25
2023-02-22T09:37:38.785Z,20.75
2023-02-22T09:40:02.170Z,21.08
2023-02-22T09:42:33.909Z,20.42
2023-02-22T09:45:06.189Z,21.33
2023-02-22T09:47:45.042Z,20.98
2023-02-22T09:50:15.676Z,20.40
2023-02-22T09:52:47.095Z,21.02
2023-02-22T09:55:28.766Z,20.95
2023-02-22T09:57:55.549Z,20.55
2023-02-22T10:00:22.673Z,20.48
2023-02-22T10:02:52.542Z,19.08
2023-02-22T10:05:22.803Z,18.85
2023-02-22T10:07:53.634Z,18.75
2023-02-22T10:10:18.834Z,19.08
2023-02-22T10:12:53.838Z,19.55
2023-02-22T10:15:41.092Z,20.23
2023-02-22T10:18:30.827Z,19.88
2023-02-22T10:20:59.215Z,19.95
2023-02-22T10:23:33.874Z,18.88
2023-02-22T10:26:15.941Z,19.60
2023-02-22T10:28:42.703Z,18.80
2023-02-22T10:31:10.617Z,21.20
2023-02-22T10:33:40.678Z,18.10
2023-02-22T10:36:05.013Z,18.33
2023-02-22T10:38:31.072Z,18.17
2023-02-22T10:40:59.191Z,18.52
2023-02-22T10:43:23.469Z,17.77
2023-02-22T10:45:46.796Z,17.42
2023-02-22T10:48:18.399Z,16.85
2023-02-22T10:50:44.791Z,16.65
2023-02-22T10:53:09.061Z,15.32
2023-02-22T10:55:32.544Z,16.38
2023-02-22T10:58:06.088Z,16.33
2023-02-22T11:00:37.257Z,15.50
2023-02-22T11:03:03.035Z,15.80
2023-02-22T11:05:45.861Z,17.17
2023-02-22T11:08:28.083Z,16.85
2023-02-22T11:10:54.198Z,15.95
2023-02-22T11:13:27.510Z,17.20
2023-02-22T11:15:50.986Z,15.73
2023-02-22T11:18:30.575Z,15.82
2023-02-22T11:21:05.125Z,15.68
2023-02-22T11:23:28.946Z,15.90
2023-02-22T11:26:03.037Z,15.57
2023-02-22T11:28:32.873Z,15.18
2023-02-22T11:30:58.315Z,14.82
2023-02-22T11:33:24.813Z,16.08
2023-02-22T11:35:53.198Z,14.35
2023-02-22T11:38:22.121Z,15.82
2023-02-22T11:40:46.206Z,15.80
2023-02-22T11:43:15.165Z,15.88
2023-02-22T11:45:44.222Z,15.05
2023-02-22T11:48:23.198Z,15.45
2023-02-22T11:51:02.147Z,15.43
2023-02-22T11:53:44.759Z,15.85
2023-02-22T11:56:20.624Z,15.65
2023-02-22T11:58:51.599Z,15.23
2023-02-22T12:01:24.755Z,15.20
2023-02-22T12:04:16.877Z,15.05
2023-02-22T12:06:51.786Z,14.80
2023-02-22T12:09:25.793Z,14.85
2023-02-22T12:12:03.782Z,14.07
2023-02-22T12:14:35.881Z,14.20
2023-02-22T12:17:20.553Z,14.68
2023-02-22T12:19:48.583Z,14.65
2023-02-22T12:22:21.337Z,13.82
2023-02-22T12:24:57.885Z,14.05
2023-02-22T12:27:34.386Z,14.30
2023-02-22T12:30:03.450Z,14.15
2023-02-22T12:32:35.552Z,12.93
2023-02-22T12:35:05.633Z,12.95
2023-02-22T12:37:40.170Z,12.95
2023-02-22T12:40:13.487Z,11.70
2023-02-22T12:42:54.736Z,12.60
2023-02-22T12:45:30.211Z,11.10
2023-02-22T12:48:03.469Z,12.32
2023-02-22T12:50:34.400Z,11.80
2023-02-22T12:53:05.756Z,11.60
2023-02-22T12:55:36.686Z,11.93
2023-02-22T12:58:08.740Z,12.88
2023-02-22T13:00:39.987Z,11.90
2023-02-22T13:03:17.723Z,11.25
2023-02-22T13:05:43.232Z,9.35
2023-02-22T13:08:31.092Z,8.48
2023-02-22T13:11:15.277Z,10.23
2023-02-22T13:13:45.565Z,9.68
2023-02-22T13:16:25.259Z,9.20
2023-02-22T13:18:56.946Z,9.93
2023-02-22T13:21:28.783Z,9.77
2023-02-22T13:24:03.608Z,9.23
2023-02-22T13:26:36.186Z,10.65
2023-02-22T13:29:08.822Z,10.43
2023-02-22T13:31:58.913Z,10.77
2023-02-22T13:34:59.440Z,11.00
2023-02-22T13:38:02.222Z,11.57
2023-02-22T13:41:14.944Z,11.35
2023-02-22T13:44:01.360Z,10.10
2023-02-22T13:47:08.805Z,10.27
2023-02-22T13:50:03.799Z,11.07
2023-02-22T13:52:31.372Z,11.40
2023-02-22T13:54:58.336Z,11.30
2023-02-22T13:57:27.838Z,11.48
2023-02-22T14:00:41.729Z,10.90
2023-02-22T14:03:09.092Z,11.68
2023-02-22T14:05:50.967Z,11.57
2023-02-22T14:08:45.560Z,11.63
2023-02-22T14:11:54.078Z,11.25
2023-02-22T14:14:19.089Z,11.55
2023-02-22T14:16:44.141Z,11.30
2023-02-22T14:19:17.491Z,11.95
2023-02-22T14:21:58.216Z,10.70
2023-02-22T14:24:21.526Z,11.27
2023-02-22T14:26:58.442Z,10.77
2023-02-22T14:29:22.219Z,11.90
2023-02-22T14:32:07.524Z,11.05
2023-02-22T14:34:49.417Z,11.52
2023-02-22T14:37:17.268Z,11.43
2023-02-22T14:39:45.973Z,9.95
2023-02-22T14:42:15.701Z,11.40
2023-02-22T14:44:47.100Z,13.13
2023-02-22T14:47:20.911Z,12.93
2023-02-22T14:49:48.916Z,12.27
2023-02-22T14:52:24.560Z,11.80
2023-02-22T14:55:17.741Z,11.65
2023-02-22T14:57:54.625Z,11.70
2023-02-22T15:00:30.568Z,12.00
2023-02-22T15:02:57.286Z,11.32
2023-02-22T15:05:21.458Z,11.95
2023-02-22T15:07:54.936Z,11.40
2023-02-22T15:10:29.426Z,12.25
2023-02-22T15:13:08.755Z,11.95
2023-02-22T15:15:33.026Z,12.73
2023-02-22T15:17:59.414Z,12.45
2023-02-22T15:20:25.163Z,12.52
2023-02-22T15:22:50.795Z,12.80
2023-02-22T15:25:14.189Z,12.80
2023-02-22T15:27:38.842Z,12.65
2023-02-22T15:30:05.488Z,12.55
2023-02-22T15:32:33.933Z,13.20
2023-02-22T15:35:14.627Z,12.65
2023-02-22T15:37:37.938Z,13.40
2023-02-22T15:40:14.404Z,12.75
2023-02-22T15:42:46.868Z,13.10
2023-02-22T15:45:16.858Z,12.45
2023-02-22T15:47:40.276Z,12.75
2023-02-22T15:50:23.635Z,13.60
2023-02-22T15:52:57.936Z,14.02
2023-02-22T15:55:25.861Z,13.10
2023-02-22T15:57:49.905Z,14.48
2023-02-22T16:00:23.780Z,14.57
2023-02-22T16:02:47.954Z,13.65
2023-02-22T16:05:14.112Z,14.15
2023-02-22T16:07:46.167Z,14.25
2023-02-22T16:10:28.779Z,14.30
2023-02-22T16:13:05.181Z,14.32
2023-02-22T16:15:34.026Z,15.60
2023-02-22T16:18:02.301Z,14.65
2023-02-22T16:20:35.360Z,14.60
2023-02-22T16:23:00.049Z,14.52
2023-02-22T16:25:29.702Z,15.13
2023-02-22T16:27:57.565Z,14.23
2023-02-22T16:30:27.795Z,14.05
2023-02-22T16:32:51.929Z,15.38
2023-02-22T16:35:19.693Z,15.02
2023-02-22T16:37:49.025Z,14.35
2023-02-22T16:40:22.466Z,14.35
2023-02-22T16:42:45.751Z,14.07
2023-02-22T16:45:14.169Z,14.85
2023-02-22T16:47:38.195Z,15.85
2023-02-22T16:50:01.323Z,14.63
2023-02-22T16:52:24.978Z,15.18
2023-02-22T16:54:49.136Z,15.57
2023-02-22T16:57:21.001Z,15.63
2023-02-22T16:59:44.517Z,15.65
2023-02-22T17:02:08.543Z,16.15
2023-02-22T17:04:32.218Z,16.63
2023-02-22T17:06:58.923Z,16.58
2023-02-22T17:09:22.323Z,17.02
2023-02-22T17:11:45.893Z,16.58
2023-02-22T17:14:14.093Z,16.23
2023-02-22T17:16:37.641Z,15.93
2023-02-22T17:19:01.046Z,15.73
2023-02-22T17:21:24.630Z,15.57
2023-02-22T17:23:49.480Z,16.10
2023-02-22T17:26:14.687Z,16.77
2023-02-22T17:28:38.002Z,16.05
2023-02-22T17:31:02.909Z,17.17
2023-02-22T17:33:26.869Z,17.25
2023-02-22T17:35:50.250Z,17.90
2023-02-22T17:38:14.003Z,18.30
2023-02-22T17:40:40.045Z,17.23
2023-02-22T17:43:04.355Z,18.60
2023-02-22T17:45:27.668Z,18.50
2023-02-22T17:47:53.602Z,18.95
2023-02-22T17:50:17.008Z,18.45
2023-02-22T17:52:40.584Z,18.60
2023-02-22T17:55:03.984Z,21.48
2023-02-22T17:57:27.221Z,21.13
2023-02-22T17:59:50.500Z,21.02
2023-02-22T18:02:13.892Z,21.05
2023-02-22T18:04:40.623Z,21.67
2023-02-22T18:07:05.128Z,21.52
2023-02-22T18:09:28.619Z,21.33
2023-02-22T18:11:51.964Z,21.83
2023-02-22T18:14:15.611Z,21.98
2023-02-22T18:16:39.453Z,22.05
2023-02-22T18:19:03.130Z,22.45
2023-02-22T18:21:27.993Z,23.33
2023-02-22T18:23:51.423Z,24.60
2023-02-22T18:26:17.525Z,24.33
2023-02-22T18:28:41.246Z,25.15
2023-02-22T18:31:09.288Z,22.40
2023-02-22T18:33:32.669Z,24.73
2023-02-22T18:35:56.104Z,24.77
2023-02-22T18:38:24.531Z,26.08
2023-02-22T18:40:51.282Z,24.67
2023-02-22T18:43:14.861Z,26.88
2023-02-22T18:45:38.615Z,26.45
2023-02-22T18:48:01.933Z,26.38
2023-02-22T18:50:25.347Z,26.00
2023-02-22T18:52:48.760Z,27.60
2023-02-22T18:55:15.384Z,26.42
2023-02-22T18:57:38.847Z,27.33
2023-02-22T19:00:02.268Z,27.77
2023-02-22T19:02:25.757Z,27.60
2023-02-22T19:04:49.524Z,26.00
2023-02-22T19:07:17.708Z,26.10
2023-02-22T19:09:41.335Z,26.85
2023-02-22T19:12:07.109Z,28.00
2023-02-22T19:14:30.825Z,26.58
2023-02-22T19:16:56.581Z,28.38
2023-02-22T19:19:20.932Z,27.25
2023-02-22T19:21:44.276Z,29.08
2023-02-22T19:24:08.616Z,25.83
2023-02-22T19:26:32.081Z,28.55
2023-02-22T19:28:58.946Z,27.50
2023-02-22T19:31:29.646Z,27.77
2023-02-22T19:33:54.029Z,28.75
2023-02-22T19:36:17.757Z,27.15
2023-02-22T19:38:43.386Z,28.00
2023-02-22T19:41:15.136Z,29.23
2023-02-22T19:43:38.847Z,28.20
2023-02-22T19:46:07.371Z,29.13
2023-02-22T19:48:30.714Z,27.60
2023-02-22T19:50:57.704Z,29.85
2023-02-22T19:53:21.088Z,28.92
2023-02-22T19:55:44.622Z,28.88
2023-02-22T19:58:08.093Z,30.10
2023-02-22T20:00:35.405Z,29.02
2023-02-22T20:03:05.752Z,29.70
2023-02-22T20:05:32.351Z,29.20
2023-02-22T20:07:55.652Z,29.50
2023-02-22T20:10:19.290Z,30.90
2023-02-22T20:12:42.711Z,29.70
2023-02-22T20:15:06.725Z,31.17
2023-02-22T20:17:30.184Z,31.05
2023-02-22T20:19:54.906Z,30.88
2023-02-22T20:22:18.229Z,31.75
2023-02-22T20:24:42.058Z,30.40
2023-02-22T20:27:05.464Z,31.15
2023-02-22T20:29:30.531Z,30.08
2023-02-22T20:31:55.006Z,33.40
2023-02-22T20:34:18.679Z,32.92
2023-02-22T20:36:43.473Z,33.10
2023-02-22T20:39:13.087Z,32.65
2023-02-22T20:41:37.614Z,34.15
2023-02-22T20:44:03.230Z,34.40
2023-02-22T20:46:31.286Z,32.80
2023-02-22T20:48:58.816Z,33.45
2023-02-22T20:51:22.165Z,35.25
2023-02-22T20:53:47.530Z,34.25
2023-02-22T20:56:14.475Z,36.97
2023-02-22T20:58:37.806Z,34.05
2023-02-22T21:01:06.253Z,35.10
2023-02-22T21:03:30.478Z,35.15
2023-02-22T21:05:53.810Z,34.33
2023-02-22T21:08:17.181Z,36.00
2023-02-22T21:10:45.441Z,35.55
2023-02-22T21:13:11.483Z,36.55
2023-02-22T21:15:36.192Z,37.45
2023-02-22T21:17:59.548Z,36.45
2023-02-22T21:20:22.891Z,37.03
2023-02-22T21:22:49.830Z,38.25
2023-02-22T21:25:16.594Z,38.35
2023-02-22T21:27:42.058Z,36.78
2023-02-22T21:30:06.736Z,40.83
2023-02-22T21:32:30.176Z,39.20
2023-02-22T21:34:54.173Z,38.40
2023-02-22T21:37:18.231Z,40.28
2023-02-22T21:39:41.717Z,40.80
2023-02-22T21:42:07.184Z,40.15
2023-02-22T21:44:32.435Z,40.88
2023-02-22T21:46:55.717Z,39.05
2023-02-22T21:49:22.352Z,41.40
2023-02-22T21:51:45.770Z,43.90
2023-02-22T21:54:11.924Z,41.67
2023-02-22T21:56:38.217Z,40.10
2023-02-22T21:59:04.960Z,38.78
2023-02-22T22:01:32.207Z,39.83
2023-02-22T22:03:59.557Z,38.70
2023-02-22T22:06:23.233Z,36.80
2023-02-22T22:08:46.453Z,40.83
2023-02-22T22:11:11.415Z,42.42
2023-02-22T22:13:34.766Z,42.80
2023-02-22T22:16:05.755Z,43.33
2023-02-22T22:18:30.499Z,45.35
2023-02-22T22:20:53.759Z,45.90
2023-02-22T22:23:17.159Z,45.20
2023-02-22T22:25:40.873Z,44.95
2023-02-22T22:28:04.345Z,42.75
2023-02-22T22:30:28.649Z,43.97
2023-02-22T22:32:52.166Z,44.60
2023-02-22T22:35:16.986Z,46.38
2023-02-22T22:37:40.225Z,45.60
2023-02-22T22:40:04.935Z,43.50
2023-02-22T22:42:28.237Z,40.75
2023-02-22T22:44:51.973Z,39.90
2023-02-22T22:47:15.173Z,38.50
2023-02-22T22:49:40.414Z,39.95
2023-02-22T22:52:05.341Z,43.13
2023-02-22T22:54:28.854Z,44.33
2023-02-22T22:56:52.349Z,46.92
2023-02-22T22:59:15.675Z,43.25
2023-02-22T23:01:44.231Z,42.75
2023-02-22T23:04:11.906Z,43.20
2023-02-22T23:06:39.138Z,39.47
2023-02-22T23:09:11.207Z,36.95
2023-02-22T23:11:34.614Z,37.55
2023-02-22T23:14:00.136Z,37.53
2023-02-22T23:16:24.483Z,38.25
2023-02-22T23:18:47.788Z,39.10
2023-02-22T23:21:11.773Z,37.75
2023-02-22T23:23:34.992Z,40.55
2023-02-22T23:26:18.076Z,39.72
2023-02-22T23:28:42.660Z,40.83
2023-02-22T23:31:09.244Z,37.88
2023-02-22T23:33:32.592Z,40.30
2023-02-22T23:35:56.036Z,38.38
2023-02-22T23:38:19.299Z,36.60
2023-02-22T23:40:44.687Z,37.33
2023-02-22T23:43:11.982Z,40.92
2023-02-22T23:45:38.528Z,41.00
2023-02-22T23:48:01.841Z,38.15
2023-02-22T23:50:28.042Z,45.95
2023-02-22T23:52:56.955Z,38.67
2023-02-22T23:55:21.094Z,39.17
2023-02-22T23:57:44.406Z,39.05
